sensor_id;sensor_type;location;lat;lon;timestamp;P1;durP1;ratioP1;P2;durP2;ratioP2
80195;SDS011;69516;42.050;21.516;2023-10-09T00:02:02;13.65;;;3.90;;
80195;SDS011;69516;42.050;21.516;2023-10-09T00:04:32;14.00;;;4.03;;
80195;SDS011;69516;42.050;21.516;2023-10-09T00:07:01;13.70;;;3.58;;
80195;SDS011;69516;42.050;21.516;2023-10-09T00:09:28;11.90;;;4.15;;
80195;SDS011;69516;42.050;21.516;2023-10-09T00:11:58;11.63;;;3.53;;
80195;SDS011;69516;42.050;21.516;2023-10-09T00:14:26;9.32;;;3.30;;
80195;SDS011;69516;42.050;21.516;2023-10-09T00:16:55;11.38;;;3.40;;
80195;SDS011;69516;42.050;21.516;2023-10-09T00:19:41;10.25;;;3.45;;
80195;SDS011;69516;42.050;21.516;2023-10-09T00:22:08;11.68;;;3.78;;
80195;SDS011;69516;42.050;21.516;2023-10-09T00:24:50;11.10;;;3.30;;
80195;SDS011;69516;42.050;21.516;2023-10-09T00:27:34;11.20;;;3.88;;
80195;SDS011;69516;42.050;21.516;2023-10-09T00:30:01;11.32;;;3.67;;
80195;SDS011;69516;42.050;21.516;2023-10-09T00:32:31;10.63;;;3.33;;
80195;SDS011;69516;42.050;21.516;2023-10-09T00:35:02;10.32;;;3.67;;
80195;SDS011;69516;42.050;21.516;2023-10-09T00:37:48;10.48;;;3.70;;
80195;SDS011;69516;42.050;21.516;2023-10-09T00:40:17;10.85;;;4.00;;
80195;SDS011;69516;42.050;21.516;2023-10-09T00:42:52;9.93;;;3.70;;
80195;SDS011;69516;42.050;21.516;2023-10-09T00:45:21;8.90;;;3.58;;
80195;SDS011;69516;42.050;21.516;2023-10-09T00:47:53;11.43;;;3.53;;
80195;SDS011;69516;42.050;21.516;2023-10-09T00:50:23;10.27;;;3.67;;
80195;SDS011;69516;42.050;21.516;2023-10-09T00:52:52;8.85;;;3.63;;
80195;SDS011;69516;42.050;21.516;2023-10-09T00:55:26;10.65;;;3.58;;
80195;SDS011;69516;42.050;21.516;2023-10-09T00:58:02;11.98;;;4.05;;
80195;SDS011;69516;42.050;21.516;2023-10-09T01:00:35;12.07;;;4.10;;
80195;SDS011;69516;42.050;21.516;2023-10-09T01:03:10;11.70;;;4.53;;
80195;SDS011;69516;42.050;21.516;2023-10-09T01:05:46;11.73;;;4.07;;
80195;SDS011;69516;42.050;21.516;2023-10-09T01:08:23;13.57;;;4.00;;
80195;SDS011;69516;42.050;21.516;2023-10-09T01:13:40;8.95;;;3.75;;
80195;SDS011;69516;42.050;21.516;2023-10-09T01:16:15;9.68;;;4.10;;
80195;SDS011;69516;42.050;21.516;2023-10-09T01:18:45;10.05;;;3.88;;
80195;SDS011;69516;42.050;21.516;2023-10-09T01:21:15;10.77;;;3.53;;
80195;SDS011;69516;42.050;21.516;2023-10-09T01:23:42;14.25;;;4.00;;
80195;SDS011;69516;42.050;21.516;2023-10-09T01:28:59;10.63;;;3.75;;
80195;SDS011;69516;42.050;21.516;2023-10-09T01:31:25;12.13;;;3.80;;
80195;SDS011;69516;42.050;21.516;2023-10-09T01:33:52;12.45;;;3.85;;
80195;SDS011;69516;42.050;21.516;2023-10-09T01:36:27;13.43;;;4.20;;
80195;SDS011;69516;42.050;21.516;2023-10-09T01:38:59;12.93;;;3.85;;
80195;SDS011;69516;42.050;21.516;2023-10-09T01:41:46;12.45;;;4.55;;
80195;SDS011;69516;42.050;21.516;2023-10-09T01:44:12;16.50;;;5.28;;
80195;SDS011;69516;42.050;21.516;2023-10-09T01:49:07;17.45;;;5.25;;
80195;SDS011;69516;42.050;21.516;2023-10-09T01:51:42;19.05;;;5.78;;
80195;SDS011;69516;42.050;21.516;2023-10-09T01:54:09;12.85;;;5.30;;
80195;SDS011;69516;42.050;21.516;2023-10-09T01:56:42;16.38;;;5.68;;
80195;SDS011;69516;42.050;21.516;2023-10-09T01:59:11;17.45;;;5.47;;
80195;SDS011;69516;42.050;21.516;2023-10-09T02:01:37;14.55;;;5.10;;
80195;SDS011;69516;42.050;21.516;2023-10-09T02:04:07;17.77;;;5.43;;
80195;SDS011;69516;42.050;21.516;2023-10-09T02:06:53;13.70;;;4.72;;
80195;SDS011;69516;42.050;21.516;2023-10-09T02:09:19;12.93;;;5.20;;
80195;SDS011;69516;42.050;21.516;2023-10-09T02:11:51;12.00;;;4.75;;
80195;SDS011;69516;42.050;21.516;2023-10-09T02:14:18;13.77;;;4.78;;
80195;SDS011;69516;42.050;21.516;2023-10-09T02:16:49;15.43;;;4.50;;
80195;SDS011;69516;42.050;21.516;2023-10-09T02:19:30;10.30;;;4.68;;
80195;SDS011;69516;42.050;21.516;2023-10-09T02:22:00;12.20;;;4.88;;
80195;SDS011;69516;42.050;21.516;2023-10-09T02:24:31;16.67;;;5.03;;
80195;SDS011;69516;42.050;21.516;2023-10-09T02:27:23;11.57;;;5.00;;
80195;SDS011;69516;42.050;21.516;2023-10-09T02:30:07;13.73;;;5.07;;
80195;SDS011;69516;42.050;21.516;2023-10-09T02:32:53;14.32;;;4.70;;
80195;SDS011;69516;42.050;21.516;2023-10-09T02:35:24;13.90;;;4.78;;
80195;SDS011;69516;42.050;21.516;2023-10-09T02:38:07;14.93;;;5.03;;
80195;SDS011;69516;42.050;21.516;2023-10-09T02:40:39;14.07;;;5.45;;
80195;SDS011;69516;42.050;21.516;2023-10-09T02:43:33;14.63;;;5.57;;
80195;SDS011;69516;42.050;21.516;2023-10-09T02:46:20;11.27;;;4.82;;
80195;SDS011;69516;42.050;21.516;2023-10-09T02:51:19;15.98;;;5.40;;
80195;SDS011;69516;42.050;21.516;2023-10-09T02:53:54;13.35;;;5.40;;
80195;SDS011;69516;42.050;21.516;2023-10-09T02:56:21;12.98;;;4.97;;
80195;SDS011;69516;42.050;21.516;2023-10-09T02:59:03;15.48;;;4.43;;
80195;SDS011;69516;42.050;21.516;2023-10-09T03:01:33;12.90;;;4.63;;
80195;SDS011;69516;42.050;21.516;2023-10-09T03:04:00;11.43;;;4.45;;
80195;SDS011;69516;42.050;21.516;2023-10-09T03:06:27;13.77;;;5.15;;
80195;SDS011;69516;42.050;21.516;2023-10-09T03:08:57;13.25;;;4.55;;
80195;SDS011;69516;42.050;21.516;2023-10-09T03:11:23;11.52;;;4.95;;
80195;SDS011;69516;42.050;21.516;2023-10-09T03:13:52;10.55;;;4.32;;
80195;SDS011;69516;42.050;21.516;2023-10-09T03:16:18;12.80;;;5.07;;
80195;SDS011;69516;42.050;21.516;2023-10-09T03:18:48;11.88;;;4.28;;
80195;SDS011;69516;42.050;21.516;2023-10-09T03:21:15;10.38;;;4.40;;
80195;SDS011;69516;42.050;21.516;2023-10-09T03:23:42;14.88;;;4.72;;
80195;SDS011;69516;42.050;21.516;2023-10-09T03:26:09;11.50;;;4.45;;
80195;SDS011;69516;42.050;21.516;2023-10-09T03:28:36;11.60;;;4.10;;
80195;SDS011;69516;42.050;21.516;2023-10-09T03:31:02;10.98;;;3.90;;
80195;SDS011;69516;42.050;21.516;2023-10-09T03:33:30;12.13;;;4.32;;
80195;SDS011;69516;42.050;21.516;2023-10-09T03:36:01;10.18;;;3.90;;
80195;SDS011;69516;42.050;21.516;2023-10-09T03:38:27;8.38;;;3.28;;
80195;SDS011;69516;42.050;21.516;2023-10-09T03:41:02;9.15;;;3.60;;
80195;SDS011;69516;42.050;21.516;2023-10-09T03:43:35;10.95;;;4.50;;
80195;SDS011;69516;42.050;21.516;2023-10-09T03:46:07;50.17;;;6.72;;
80195;SDS011;69516;42.050;21.516;2023-10-09T03:48:48;14.32;;;4.13;;
80195;SDS011;69516;42.050;21.516;2023-10-09T03:51:14;8.98;;;4.13;;
80195;SDS011;69516;42.050;21.516;2023-10-09T03:53:50;11.88;;;3.83;;
80195;SDS011;69516;42.050;21.516;2023-10-09T03:56:17;16.88;;;5.00;;
80195;SDS011;69516;42.050;21.516;2023-10-09T03:58:44;10.85;;;4.45;;
80195;SDS011;69516;42.050;21.516;2023-10-09T04:01:14;10.68;;;4.15;;
80195;SDS011;69516;42.050;21.516;2023-10-09T04:03:50;13.00;;;4.47;;
80195;SDS011;69516;42.050;21.516;2023-10-09T04:06:20;10.32;;;4.10;;
80195;SDS011;69516;42.050;21.516;2023-10-09T04:08:46;12.23;;;4.60;;
80195;SDS011;69516;42.050;21.516;2023-10-09T04:11:14;18.33;;;4.20;;
80195;SDS011;69516;42.050;21.516;2023-10-09T04:13:48;11.50;;;4.05;;
80195;SDS011;69516;42.050;21.516;2023-10-09T04:16:15;13.55;;;4.28;;
80195;SDS011;69516;42.050;21.516;2023-10-09T04:18:57;16.40;;;4.53;;
80195;SDS011;69516;42.050;21.516;2023-10-09T04:21:24;11.82;;;3.97;;
80195;SDS011;69516;42.050;21.516;2023-10-09T04:24:03;16.58;;;4.70;;
80195;SDS011;69516;42.050;21.516;2023-10-09T04:26:39;12.68;;;4.70;;
80195;SDS011;69516;42.050;21.516;2023-10-09T04:29:15;14.13;;;4.28;;
80195;SDS011;69516;42.050;21.516;2023-10-09T04:31:52;11.68;;;4.50;;
80195;SDS011;69516;42.050;21.516;2023-10-09T04:34:20;10.43;;;4.47;;
80195;SDS011;69516;42.050;21.516;2023-10-09T04:37:03;10.93;;;5.00;;
80195;SDS011;69516;42.050;21.516;2023-10-09T04:39:49;12.18;;;4.43;;
80195;SDS011;69516;42.050;21.516;2023-10-09T04:42:26;12.65;;;4.32;;
80195;SDS011;69516;42.050;21.516;2023-10-09T04:45:02;16.23;;;4.82;;
80195;SDS011;69516;42.050;21.516;2023-10-09T04:47:28;11.13;;;4.20;;
80195;SDS011;69516;42.050;21.516;2023-10-09T04:52:48;18.15;;;4.50;;
80195;SDS011;69516;42.050;21.516;2023-10-09T04:55:14;10.43;;;4.43;;
80195;SDS011;69516;42.050;21.516;2023-10-09T04:57:44;11.13;;;4.15;;
80195;SDS011;69516;42.050;21.516;2023-10-09T05:00:25;13.35;;;4.40;;
80195;SDS011;69516;42.050;21.516;2023-10-09T05:02:52;8.60;;;4.60;;
80195;SDS011;69516;42.050;21.516;2023-10-09T05:05:30;20.23;;;5.20;;
80195;SDS011;69516;42.050;21.516;2023-10-09T05:10:54;15.05;;;5.30;;
80195;SDS011;69516;42.050;21.516;2023-10-09T05:13:40;16.10;;;5.13;;
80195;SDS011;69516;42.050;21.516;2023-10-09T05:16:14;18.55;;;5.25;;
80195;SDS011;69516;42.050;21.516;2023-10-09T05:18:47;11.20;;;4.43;;
80195;SDS011;69516;42.050;21.516;2023-10-09T05:21:46;16.95;;;5.03;;
80195;SDS011;69516;42.050;21.516;2023-10-09T05:24:12;16.20;;;5.18;;
80195;SDS011;69516;42.050;21.516;2023-10-09T05:26:48;14.07;;;5.13;;
80195;SDS011;69516;42.050;21.516;2023-10-09T05:29:16;18.30;;;5.32;;
80195;SDS011;69516;42.050;21.516;2023-10-09T05:32:06;12.80;;;5.68;;
80195;SDS011;69516;42.050;21.516;2023-10-09T05:34:38;11.98;;;4.68;;
80195;SDS011;69516;42.050;21.516;2023-10-09T05:37:31;11.65;;;5.22;;
80195;SDS011;69516;42.050;21.516;2023-10-09T05:39:58;22.38;;;5.22;;
80195;SDS011;69516;42.050;21.516;2023-10-09T05:42:31;16.83;;;5.03;;
80195;SDS011;69516;42.050;21.516;2023-10-09T05:45:09;14.10;;;5.55;;
80195;SDS011;69516;42.050;21.516;2023-10-09T05:47:54;16.10;;;5.47;;
80195;SDS011;69516;42.050;21.516;2023-10-09T05:50:39;13.45;;;5.93;;
80195;SDS011;69516;42.050;21.516;2023-10-09T05:53:38;19.88;;;6.22;;
80195;SDS011;69516;42.050;21.516;2023-10-09T05:56:10;15.40;;;6.10;;
80195;SDS011;69516;42.050;21.516;2023-10-09T05:58:55;12.98;;;5.90;;
80195;SDS011;69516;42.050;21.516;2023-10-09T06:01:36;13.43;;;6.00;;
80195;SDS011;69516;42.050;21.516;2023-10-09T06:04:21;14.23;;;5.80;;
80195;SDS011;69516;42.050;21.516;2023-10-09T06:07:07;12.93;;;5.68;;
80195;SDS011;69516;42.050;21.516;2023-10-09T06:09:39;11.52;;;5.80;;
80195;SDS011;69516;42.050;21.516;2023-10-09T06:12:15;13.52;;;6.63;;
80195;SDS011;69516;42.050;21.516;2023-10-09T06:15:04;14.23;;;8.35;;
80195;SDS011;69516;42.050;21.516;2023-10-09T06:17:50;11.73;;;7.18;;
80195;SDS011;69516;42.050;21.516;2023-10-09T06:20:17;13.98;;;6.78;;
80195;SDS011;69516;42.050;21.516;2023-10-09T06:23:15;12.07;;;6.78;;
80195;SDS011;69516;42.050;21.516;2023-10-09T06:25:42;13.50;;;6.75;;
80195;SDS011;69516;42.050;21.516;2023-10-09T06:28:17;15.48;;;7.65;;
80195;SDS011;69516;42.050;21.516;2023-10-09T06:30:44;12.40;;;6.82;;
80195;SDS011;69516;42.050;21.516;2023-10-09T06:33:12;11.50;;;7.15;;
80195;SDS011;69516;42.050;21.516;2023-10-09T06:35:46;13.23;;;7.07;;
80195;SDS011;69516;42.050;21.516;2023-10-09T06:38:21;12.80;;;6.60;;
80195;SDS011;69516;42.050;21.516;2023-10-09T06:40:48;12.05;;;6.00;;
80195;SDS011;69516;42.050;21.516;2023-10-09T06:43:21;11.65;;;4.97;;
80195;SDS011;69516;42.050;21.516;2023-10-09T06:45:51;10.45;;;6.07;;
80195;SDS011;69516;42.050;21.516;2023-10-09T06:48:25;12.38;;;6.18;;
80195;SDS011;69516;42.050;21.516;2023-10-09T06:51:04;16.75;;;8.75;;
80195;SDS011;69516;42.050;21.516;2023-10-09T06:53:49;11.02;;;7.28;;
80195;SDS011;69516;42.050;21.516;2023-10-09T06:58:50;11.38;;;7.13;;
80195;SDS011;69516;42.050;21.516;2023-10-09T07:01:20;15.75;;;7.28;;
80195;SDS011;69516;42.050;21.516;2023-10-09T07:03:53;11.73;;;7.30;;
80195;SDS011;69516;42.050;21.516;2023-10-09T07:06:25;18.58;;;7.80;;
80195;SDS011;69516;42.050;21.516;2023-10-09T07:09:00;22.08;;;8.43;;
80195;SDS011;69516;42.050;21.516;2023-10-09T07:11:33;14.95;;;7.72;;
80195;SDS011;69516;42.050;21.516;2023-10-09T07:14:07;20.05;;;7.57;;
80195;SDS011;69516;42.050;21.516;2023-10-09T07:16:54;14.38;;;7.55;;
80195;SDS011;69516;42.050;21.516;2023-10-09T07:19:24;20.17;;;9.77;;
80195;SDS011;69516;42.050;21.516;2023-10-09T07:22:00;20.08;;;9.40;;
80195;SDS011;69516;42.050;21.516;2023-10-09T07:24:30;15.60;;;7.85;;
80195;SDS011;69516;42.050;21.516;2023-10-09T07:37:42;10.82;;;7.60;;
80195;SDS011;69516;42.050;21.516;2023-10-09T07:40:08;14.35;;;7.35;;
80195;SDS011;69516;42.050;21.516;2023-10-09T07:42:34;14.43;;;8.40;;
80195;SDS011;69516;42.050;21.516;2023-10-09T07:45:07;11.43;;;7.22;;
80195;SDS011;69516;42.050;21.516;2023-10-09T07:47:56;12.23;;;7.53;;
80195;SDS011;69516;42.050;21.516;2023-10-09T07:50:28;12.35;;;7.70;;
80195;SDS011;69516;42.050;21.516;2023-10-09T07:53:09;10.10;;;7.00;;
80195;SDS011;69516;42.050;21.516;2023-10-09T07:56:05;11.88;;;6.13;;
80195;SDS011;69516;42.050;21.516;2023-10-09T07:58:34;10.82;;;6.97;;
80195;SDS011;69516;42.050;21.516;2023-10-09T08:01:13;8.75;;;6.20;;
80195;SDS011;69516;42.050;21.516;2023-10-09T08:03:59;12.15;;;6.22;;
80195;SDS011;69516;42.050;21.516;2023-10-09T08:06:36;11.88;;;6.53;;
80195;SDS011;69516;42.050;21.516;2023-10-09T08:09:03;11.18;;;6.78;;
80195;SDS011;69516;42.050;21.516;2023-10-09T08:11:42;11.07;;;6.03;;
80195;SDS011;69516;42.050;21.516;2023-10-09T08:14:08;12.57;;;5.95;;
80195;SDS011;69516;42.050;21.516;2023-10-09T08:16:47;8.52;;;5.50;;
80195;SDS011;69516;42.050;21.516;2023-10-09T08:19:13;13.15;;;5.57;;
80195;SDS011;69516;42.050;21.516;2023-10-09T08:21:57;12.32;;;5.75;;
80195;SDS011;69516;42.050;21.516;2023-10-09T08:25:02;11.23;;;5.50;;
80195;SDS011;69516;42.050;21.516;2023-10-09T08:27:29;11.68;;;5.65;;
80195;SDS011;69516;42.050;21.516;2023-10-09T08:29:59;9.45;;;5.22;;
80195;SDS011;69516;42.050;21.516;2023-10-09T08:32:44;10.70;;;5.95;;
80195;SDS011;69516;42.050;21.516;2023-10-09T08:38:01;10.82;;;5.40;;
80195;SDS011;69516;42.050;21.516;2023-10-09T08:40:34;8.52;;;5.03;;
80195;SDS011;69516;42.050;21.516;2023-10-09T08:43:17;11.40;;;6.00;;
80195;SDS011;69516;42.050;21.516;2023-10-09T08:45:51;13.52;;;5.95;;
80195;SDS011;69516;42.050;21.516;2023-10-09T08:48:19;10.98;;;5.93;;
80195;SDS011;69516;42.050;21.516;2023-10-09T08:50:49;12.73;;;6.07;;
80195;SDS011;69516;42.050;21.516;2023-10-09T08:53:16;10.13;;;6.30;;
80195;SDS011;69516;42.050;21.516;2023-10-09T08:55:43;10.82;;;4.68;;
80195;SDS011;69516;42.050;21.516;2023-10-09T08:58:11;9.23;;;4.75;;
80195;SDS011;69516;42.050;21.516;2023-10-09T09:03:15;8.80;;;4.63;;
80195;SDS011;69516;42.050;21.516;2023-10-09T09:06:02;8.82;;;4.40;;
80195;SDS011;69516;42.050;21.516;2023-10-09T09:08:28;11.43;;;4.40;;
80195;SDS011;69516;42.050;21.516;2023-10-09T09:13:34;9.80;;;5.35;;
80195;SDS011;69516;42.050;21.516;2023-10-09T09:16:00;7.97;;;4.82;;
80195;SDS011;69516;42.050;21.516;2023-10-09T09:18:27;10.27;;;4.95;;
80195;SDS011;69516;42.050;21.516;2023-10-09T09:21:03;8.38;;;4.75;;
80195;SDS011;69516;42.050;21.516;2023-10-09T09:23:54;6.63;;;4.15;;
80195;SDS011;69516;42.050;21.516;2023-10-09T09:26:31;8.70;;;4.57;;
80195;SDS011;69516;42.050;21.516;2023-10-09T09:29:02;9.63;;;4.72;;
80195;SDS011;69516;42.050;21.516;2023-10-09T09:31:31;9.48;;;4.72;;
80195;SDS011;69516;42.050;21.516;2023-10-09T09:34:03;7.32;;;4.75;;
80195;SDS011;69516;42.050;21.516;2023-10-09T09:36:43;9.95;;;4.82;;
80195;SDS011;69516;42.050;21.516;2023-10-09T09:39:19;9.02;;;4.85;;
80195;SDS011;69516;42.050;21.516;2023-10-09T09:41:52;9.77;;;4.95;;
80195;SDS011;69516;42.050;21.516;2023-10-09T09:44:18;9.73;;;4.90;;
80195;SDS011;69516;42.050;21.516;2023-10-09T09:49:13;10.50;;;5.20;;
80195;SDS011;69516;42.050;21.516;2023-10-09T09:51:42;10.50;;;5.53;;
80195;SDS011;69516;42.050;21.516;2023-10-09T09:54:12;9.75;;;4.38;;
80195;SDS011;69516;42.050;21.516;2023-10-09T09:56:40;7.05;;;4.88;;
80195;SDS011;69516;42.050;21.516;2023-10-09T09:59:09;9.85;;;4.88;;
80195;SDS011;69516;42.050;21.516;2023-10-09T10:01:47;8.00;;;4.47;;
80195;SDS011;69516;42.050;21.516;2023-10-09T10:04:22;8.88;;;5.80;;
80195;SDS011;69516;42.050;21.516;2023-10-09T10:09:39;9.02;;;5.47;;
80195;SDS011;69516;42.050;21.516;2023-10-09T10:12:09;9.13;;;5.07;;
80195;SDS011;69516;42.050;21.516;2023-10-09T10:17:17;9.25;;;4.75;;
80195;SDS011;69516;42.050;21.516;2023-10-09T10:22:39;8.13;;;4.85;;
80195;SDS011;69516;42.050;21.516;2023-10-09T10:25:33;9.55;;;5.32;;
80195;SDS011;69516;42.050;21.516;2023-10-09T10:28:19;9.98;;;5.15;;
80195;SDS011;69516;42.050;21.516;2023-10-09T10:31:07;8.07;;;4.22;;
80195;SDS011;69516;42.050;21.516;2023-10-09T10:36:20;10.65;;;4.13;;
80195;SDS011;69516;42.050;21.516;2023-10-09T10:44:04;8.57;;;4.30;;
80195;SDS011;69516;42.050;21.516;2023-10-09T10:46:48;9.00;;;4.35;;
80195;SDS011;69516;42.050;21.516;2023-10-09T10:49:17;8.25;;;4.30;;
80195;SDS011;69516;42.050;21.516;2023-10-09T10:51:49;11.85;;;4.40;;
80195;SDS011;69516;42.050;21.516;2023-10-09T10:54:40;9.77;;;5.30;;
80195;SDS011;69516;42.050;21.516;2023-10-09T10:57:19;6.95;;;4.20;;
80195;SDS011;69516;42.050;21.516;2023-10-09T10:59:54;8.40;;;3.80;;
80195;SDS011;69516;42.050;21.516;2023-10-09T11:02:31;7.00;;;4.18;;
80195;SDS011;69516;42.050;21.516;2023-10-09T11:04:58;6.53;;;3.85;;
80195;SDS011;69516;42.050;21.516;2023-10-09T11:07:48;8.68;;;3.72;;
80195;SDS011;69516;42.050;21.516;2023-10-09T11:10:21;7.80;;;4.05;;
80195;SDS011;69516;42.050;21.516;2023-10-09T11:12:53;6.28;;;4.07;;
80195;SDS011;69516;42.050;21.516;2023-10-09T11:15:32;7.35;;;4.05;;
80195;SDS011;69516;42.050;21.516;2023-10-09T11:18:14;6.80;;;3.83;;
80195;SDS011;69516;42.050;21.516;2023-10-09T11:23:56;8.63;;;4.28;;
80195;SDS011;69516;42.050;21.516;2023-10-09T11:26:46;6.43;;;3.45;;
80195;SDS011;69516;42.050;21.516;2023-10-09T11:29:19;9.52;;;3.50;;
80195;SDS011;69516;42.050;21.516;2023-10-09T11:34:24;8.55;;;3.53;;
80195;SDS011;69516;42.050;21.516;2023-10-09T11:37:00;8.45;;;3.45;;
80195;SDS011;69516;42.050;21.516;2023-10-09T11:39:27;9.68;;;4.07;;
80195;SDS011;69516;42.050;21.516;2023-10-09T11:42:01;8.63;;;3.35;;
80195;SDS011;69516;42.050;21.516;2023-10-09T11:44:38;8.15;;;4.03;;
80195;SDS011;69516;42.050;21.516;2023-10-09T11:47:47;7.38;;;3.35;;
80195;SDS011;69516;42.050;21.516;2023-10-09T11:50:12;9.48;;;3.33;;
80195;SDS011;69516;42.050;21.516;2023-10-09T11:53:12;7.20;;;3.10;;
80195;SDS011;69516;42.050;21.516;2023-10-09T11:55:37;8.75;;;3.20;;
80195;SDS011;69516;42.050;21.516;2023-10-09T11:58:03;5.88;;;2.95;;
80195;SDS011;69516;42.050;21.516;2023-10-09T12:00:31;5.72;;;3.00;;
80195;SDS011;69516;42.050;21.516;2023-10-09T12:03:09;7.15;;;3.65;;
80195;SDS011;69516;42.050;21.516;2023-10-09T12:05:36;8.90;;;3.50;;
80195;SDS011;69516;42.050;21.516;2023-10-09T12:08:03;7.68;;;3.35;;
80195;SDS011;69516;42.050;21.516;2023-10-09T12:10:33;7.53;;;3.25;;
80195;SDS011;69516;42.050;21.516;2023-10-09T12:13:03;8.55;;;3.22;;
80195;SDS011;69516;42.050;21.516;2023-10-09T12:15:30;8.40;;;3.58;;
80195;SDS011;69516;42.050;21.516;2023-10-09T12:18:05;8.68;;;3.38;;
80195;SDS011;69516;42.050;21.516;2023-10-09T12:20:34;6.90;;;3.70;;
80195;SDS011;69516;42.050;21.516;2023-10-09T12:23:01;7.40;;;3.15;;
80195;SDS011;69516;42.050;21.516;2023-10-09T12:25:31;6.68;;;3.08;;
80195;SDS011;69516;42.050;21.516;2023-10-09T12:28:01;9.07;;;3.10;;
80195;SDS011;69516;42.050;21.516;2023-10-09T12:30:31;6.75;;;3.10;;
80195;SDS011;69516;42.050;21.516;2023-10-09T12:33:04;9.57;;;3.33;;
80195;SDS011;69516;42.050;21.516;2023-10-09T12:35:35;8.15;;;3.20;;
80195;SDS011;69516;42.050;21.516;2023-10-09T12:38:02;6.97;;;3.10;;
80195;SDS011;69516;42.050;21.516;2023-10-09T12:40:28;9.50;;;3.55;;
80195;SDS011;69516;42.050;21.516;2023-10-09T12:42:56;6.63;;;3.35;;
80195;SDS011;69516;42.050;21.516;2023-10-09T12:45:26;7.85;;;3.30;;
80195;SDS011;69516;42.050;21.516;2023-10-09T12:47:53;8.07;;;3.50;;
80195;SDS011;69516;42.050;21.516;2023-10-09T12:50:24;8.45;;;3.17;;
80195;SDS011;69516;42.050;21.516;2023-10-09T12:52:59;11.15;;;3.80;;
80195;SDS011;69516;42.050;21.516;2023-10-09T12:55:35;9.40;;;3.42;;
80195;SDS011;69516;42.050;21.516;2023-10-09T12:58:03;7.25;;;3.10;;
80195;SDS011;69516;42.050;21.516;2023-10-09T13:00:35;7.97;;;3.45;;
80195;SDS011;69516;42.050;21.516;2023-10-09T13:03:08;8.57;;;3.67;;
80195;SDS011;69516;42.050;21.516;2023-10-09T13:05:50;7.57;;;3.50;;
80195;SDS011;69516;42.050;21.516;2023-10-09T13:08:27;6.82;;;3.15;;
80195;SDS011;69516;42.050;21.516;2023-10-09T13:11:04;7.03;;;3.13;;
80195;SDS011;69516;42.050;21.516;2023-10-09T13:13:42;7.40;;;3.25;;
80195;SDS011;69516;42.050;21.516;2023-10-09T13:16:15;7.28;;;3.38;;
80195;SDS011;69516;42.050;21.516;2023-10-09T13:18:53;8.88;;;3.50;;
80195;SDS011;69516;42.050;21.516;2023-10-09T13:21:20;8.13;;;2.90;;
80195;SDS011;69516;42.050;21.516;2023-10-09T13:23:46;8.68;;;3.47;;
80195;SDS011;69516;42.050;21.516;2023-10-09T13:26:15;6.10;;;3.30;;
80195;SDS011;69516;42.050;21.516;2023-10-09T13:28:49;6.80;;;3.10;;
80195;SDS011;69516;42.050;21.516;2023-10-09T13:31:15;6.57;;;2.92;;
80195;SDS011;69516;42.050;21.516;2023-10-09T13:33:42;6.90;;;2.92;;
80195;SDS011;69516;42.050;21.516;2023-10-09T13:36:09;5.95;;;3.47;;
80195;SDS011;69516;42.050;21.516;2023-10-09T13:38:51;5.97;;;3.05;;
80195;SDS011;69516;42.050;21.516;2023-10-09T13:41:18;7.30;;;3.05;;
80195;SDS011;69516;42.050;21.516;2023-10-09T13:43:44;9.48;;;3.20;;
80195;SDS011;69516;42.050;21.516;2023-10-09T13:46:11;6.57;;;3.33;;
80195;SDS011;69516;42.050;21.516;2023-10-09T13:48:40;7.18;;;3.42;;
80195;SDS011;69516;42.050;21.516;2023-10-09T13:51:11;8.48;;;3.55;;
80195;SDS011;69516;42.050;21.516;2023-10-09T13:53:47;8.18;;;3.30;;
80195;SDS011;69516;42.050;21.516;2023-10-09T13:56:14;6.72;;;3.15;;
80195;SDS011;69516;42.050;21.516;2023-10-09T13:58:43;6.80;;;2.83;;
80195;SDS011;69516;42.050;21.516;2023-10-09T14:01:09;8.70;;;2.92;;
80195;SDS011;69516;42.050;21.516;2023-10-09T14:03:36;19.25;;;7.07;;
80195;SDS011;69516;42.050;21.516;2023-10-09T14:06:04;8.25;;;3.58;;
80195;SDS011;69516;42.050;21.516;2023-10-09T14:08:37;10.48;;;3.53;;
80195;SDS011;69516;42.050;21.516;2023-10-09T14:11:09;9.48;;;3.47;;
80195;SDS011;69516;42.050;21.516;2023-10-09T14:13:42;6.55;;;3.17;;
80195;SDS011;69516;42.050;21.516;2023-10-09T14:16:08;8.77;;;3.53;;
80195;SDS011;69516;42.050;21.516;2023-10-09T14:18:51;7.60;;;3.75;;
80195;SDS011;69516;42.050;21.516;2023-10-09T14:21:19;8.77;;;5.00;;
80195;SDS011;69516;42.050;21.516;2023-10-09T14:23:46;8.75;;;4.72;;
80195;SDS011;69516;42.050;21.516;2023-10-09T14:26:13;7.32;;;3.25;;
80195;SDS011;69516;42.050;21.516;2023-10-09T14:28:40;8.93;;;3.40;;
80195;SDS011;69516;42.050;21.516;2023-10-09T14:31:08;7.47;;;3.30;;
80195;SDS011;69516;42.050;21.516;2023-10-09T14:33:37;7.68;;;3.05;;
80195;SDS011;69516;42.050;21.516;2023-10-09T14:38:32;9.13;;;3.50;;
80195;SDS011;69516;42.050;21.516;2023-10-09T14:41:03;7.88;;;3.78;;
80195;SDS011;69516;42.050;21.516;2023-10-09T14:43:32;8.65;;;3.70;;
80195;SDS011;69516;42.050;21.516;2023-10-09T14:45:59;12.23;;;4.00;;
80195;SDS011;69516;42.050;21.516;2023-10-09T14:48:25;8.50;;;3.55;;
80195;SDS011;69516;42.050;21.516;2023-10-09T14:50:52;7.65;;;3.15;;
80195;SDS011;69516;42.050;21.516;2023-10-09T14:53:18;9.90;;;3.58;;
80195;SDS011;69516;42.050;21.516;2023-10-09T14:55:57;12.15;;;3.78;;
80195;SDS011;69516;42.050;21.516;2023-10-09T14:58:34;7.75;;;3.40;;
80195;SDS011;69516;42.050;21.516;2023-10-09T15:01:10;7.03;;;3.13;;
80195;SDS011;69516;42.050;21.516;2023-10-09T15:03:37;8.80;;;3.30;;
80195;SDS011;69516;42.050;21.516;2023-10-09T15:06:04;6.65;;;3.05;;
80195;SDS011;69516;42.050;21.516;2023-10-09T15:08:36;6.75;;;3.20;;
80195;SDS011;69516;42.050;21.516;2023-10-09T15:11:03;6.30;;;3.28;;
80195;SDS011;69516;42.050;21.516;2023-10-09T15:13:31;7.82;;;3.08;;
80195;SDS011;69516;42.050;21.516;2023-10-09T15:15:57;7.20;;;3.05;;
80195;SDS011;69516;42.050;21.516;2023-10-09T15:18:24;7.43;;;3.22;;
80195;SDS011;69516;42.050;21.516;2023-10-09T15:20:50;7.70;;;3.00;;
80195;SDS011;69516;42.050;21.516;2023-10-09T15:23:17;8.90;;;3.25;;
80195;SDS011;69516;42.050;21.516;2023-10-09T15:28:15;8.95;;;3.70;;
80195;SDS011;69516;42.050;21.516;2023-10-09T15:30:41;6.05;;;3.30;;
80195;SDS011;69516;42.050;21.516;2023-10-09T15:33:10;9.18;;;3.20;;
80195;SDS011;69516;42.050;21.516;2023-10-09T15:35:36;8.93;;;3.20;;
80195;SDS011;69516;42.050;21.516;2023-10-09T15:38:05;9.73;;;3.50;;
80195;SDS011;69516;42.050;21.516;2023-10-09T15:40:31;8.35;;;3.42;;
80195;SDS011;69516;42.050;21.516;2023-10-09T15:43:02;6.90;;;3.15;;
80195;SDS011;69516;42.050;21.516;2023-10-09T15:47:57;11.45;;;3.47;;
80195;SDS011;69516;42.050;21.516;2023-10-09T15:50:29;6.68;;;3.40;;
80195;SDS011;69516;42.050;21.516;2023-10-09T15:52:59;7.97;;;3.60;;
80195;SDS011;69516;42.050;21.516;2023-10-09T15:55:27;15.95;;;3.58;;
80195;SDS011;69516;42.050;21.516;2023-10-09T15:57:53;6.43;;;3.03;;
80195;SDS011;69516;42.050;21.516;2023-10-09T16:00:20;7.38;;;3.28;;
80195;SDS011;69516;42.050;21.516;2023-10-09T16:02:53;7.80;;;3.63;;
80195;SDS011;69516;42.050;21.516;2023-10-09T16:05:20;9.32;;;3.55;;
80195;SDS011;69516;42.050;21.516;2023-10-09T16:07:51;8.15;;;3.50;;
80195;SDS011;69516;42.050;21.516;2023-10-09T16:10:21;7.97;;;3.28;;
80195;SDS011;69516;42.050;21.516;2023-10-09T16:12:47;7.60;;;3.45;;